Time;durP1;ratioP1;P1;durP2;ratioP2;P2;SDS_P1;SDS_P2;PMS_P1;PMS_P2;Temp;Humidity;BMP_temperature;BMP_pressure;BME280_temperature;BME280_humidity;BME280_pressure;Samples;Min_cycle;Max_cycle;Signal;HPM_P1;HPM_P2
2024/01/02 00:01:28;;;;;;;6.20;1.67;;;;;;;8.54;73.35;99812.50;5066693;28;20212;-79
2024/01/02 00:03:56;;;;;;;8.07;2.10;;;;;;;8.46;73.68;99814.22;5074398;28;20207;-78
2024/01/02 00:06:25;;;;;;;6.03;1.87;;;;;;;8.44;73.87;99809.13;5056307;28;20216;-79
2024/01/02 00:08:53;;;;;;;9.97;1.90;;;;;;;8.45;74.09;99808.09;5071552;28;20200;-78
2024/01/02 00:11:22;;;;;;;5.73;1.63;;;;;;;8.46;74.06;99804.50;5070104;28;20211;-78
2024/01/02 00:13:49;;;;;;;7.43;1.47;;;;;;;8.47;74.06;99798.22;5065521;28;20286;-79
2024/01/02 00:16:18;;;;;;;4.90;1.73;;;;;;;8.47;74.01;99790.31;5069468;28;20250;-79
2024/01/02 00:18:45;;;;;;;6.03;1.60;;;;;;;8.49;74.05;99785.69;5063706;28;20216;-78
2024/01/02 00:21:13;;;;;;;7.73;1.77;;;;;;;8.44;74.02;99777.41;5070074;28;20230;-78
2024/01/02 00:23:44;;;;;;;4.67;1.43;;;;;;;8.50;74.23;99768.03;5064436;28;20278;-80
2024/01/02 00:26:12;;;;;;;5.53;1.80;;;;;;;8.49;74.07;99759.28;5053655;28;20931;-80
2024/01/02 00:28:40;;;;;;;12.30;1.80;;;;;;;8.50;74.05;99766.22;5063794;28;20219;-80
2024/01/02 00:31:10;;;;;;;6.70;1.70;;;;;;;8.48;74.13;99759.44;5032960;28;20204;-79
2024/01/02 00:33:37;;;;;;;5.30;1.47;;;;;;;8.49;74.12;99755.81;5070583;28;20204;-78
2024/01/02 00:36:10;;;;;;;5.90;1.43;;;;;;;8.50;74.26;99752.19;5065665;28;20212;-80
2024/01/02 00:38:39;;;;;;;9.47;1.70;;;;;;;8.56;73.79;99747.13;5066149;28;20219;-79
2024/01/02 00:41:08;;;;;;;7.23;1.53;;;;;;;8.55;73.93;99745.44;5062900;28;20704;-79
2024/01/02 00:43:36;;;;;;;8.70;1.70;;;;;;;8.58;73.82;99741.69;5070007;28;20653;-79
2024/01/02 00:46:04;;;;;;;4.03;1.40;;;;;;;8.63;73.62;99726.19;5050541;28;20239;-79
2024/01/02 00:48:33;;;;;;;7.87;1.70;;;;;;;8.59;73.81;99720.38;5062309;28;20207;-79
2024/01/02 00:51:01;;;;;;;7.43;1.90;;;;;;;8.61;73.64;99717.59;5060011;28;20212;-78
2024/01/02 00:53:29;;;;;;;7.30;1.30;;;;;;;8.59;73.75;99712.47;5068556;28;20200;-79
2024/01/02 00:55:57;;;;;;;7.97;2.17;;;;;;;8.56;74.08;99711.94;5067871;28;20207;-79
2024/01/02 00:58:26;;;;;;;8.40;1.43;;;;;;;8.54;74.08;99709.44;5069171;28;20680;-78
2024/01/02 01:00:54;;;;;;;4.80;1.17;;;;;;;8.61;73.99;99707.88;5068250;28;20638;-79
2024/01/02 01:03:22;;;;;;;8.77;2.20;;;;;;;8.66;73.74;99692.34;5066077;28;20204;-79
2024/01/02 01:05:50;;;;;;;5.67;1.50;;;;;;;8.63;73.72;99686.53;5067433;28;20221;-79
2024/01/02 01:08:18;;;;;;;6.30;1.50;;;;;;;8.60;74.33;99695.63;5060371;28;20223;-82
2024/01/02 01:10:46;;;;;;;5.10;1.67;;;;;;;8.63;74.31;99683.91;5070398;28;20211;-79
2024/01/02 01:13:14;;;;;;;8.10;1.60;;;;;;;8.58;74.43;99680.91;5068803;28;20245;-78
2024/01/02 01:15:43;;;;;;;9.93;2.00;;;;;;;8.56;74.71;99673.13;5066935;28;20221;-80
2024/01/02 01:18:11;;;;;;;5.40;1.30;;;;;;;8.50;75.09;99668.47;5052367;28;20656;-78
2024/01/02 01:20:39;;;;;;;5.17;1.40;;;;;;;8.56;74.84;99667.84;5066259;28;20596;-78
2024/01/02 01:23:07;;;;;;;4.67;1.40;;;;;;;8.60;74.93;99668.38;5057696;28;20318;-80
2024/01/02 01:25:36;;;;;;;6.90;1.67;;;;;;;8.60;75.10;99661.28;5066522;28;20234;-79
2024/01/02 01:28:04;;;;;;;8.67;1.70;;;;;;;8.52;75.44;99658.56;5064416;28;20251;-79
2024/01/02 01:30:32;;;;;;;5.03;1.43;;;;;;;8.53;75.73;99643.56;5066260;28;20215;-80
2024/01/02 01:33:01;;;;;;;4.77;1.37;;;;;;;8.54;75.96;99645.19;5060590;28;20200;-78
2024/01/02 01:35:30;;;;;;;8.43;1.50;;;;;;;8.46;76.36;99634.56;5067845;28;20219;-80
2024/01/02 01:37:57;;;;;;;3.00;1.20;;;;;;;8.44;76.86;99626.00;5065076;28;20294;-79
2024/01/02 01:40:25;;;;;;;7.87;1.47;;;;;;;8.43;77.23;99625.16;5066198;28;20232;-78
2024/01/02 01:42:53;;;;;;;4.30;1.10;;;;;;;8.34;77.91;99612.88;5066095;28;20221;-78
2024/01/02 01:45:21;;;;;;;7.23;1.57;;;;;;;8.31;78.28;99607.88;5066364;28;20203;-79
2024/01/02 01:47:49;;;;;;;5.20;1.43;;;;;;;8.36;78.42;99607.41;5065777;28;20203;-80
2024/01/02 01:50:19;;;;;;;4.80;1.30;;;;;;;8.32;79.39;99616.66;5064233;28;20659;-80
2024/01/02 01:52:47;;;;;;;4.43;1.27;;;;;;;8.38;79.19;99606.28;5066228;28;20667;-79
2024/01/02 01:55:15;;;;;;;4.33;1.20;;;;;;;8.41;79.24;99611.28;5059112;28;20603;-78
2024/01/02 01:57:43;;;;;;;5.80;1.67;;;;;;;8.31;80.02;99618.47;5061772;28;20275;-83
2024/01/02 02:00:14;;;;;;;5.57;1.77;;;;;;;8.24;80.95;99609.47;5061166;28;20235;-78
2024/01/02 02:02:43;;;;;;;13.37;2.27;;;;;;;8.14;82.23;99606.09;5064502;28;20236;-80
2024/01/02 02:05:11;;;;;;;5.20;1.30;;;;;;;8.11;82.69;99593.19;5066011;28;20211;-79
2024/01/02 02:07:41;;;;;;;6.77;1.20;;;;;;;8.06;83.58;99585.72;5061240;28;20216;-80
2024/01/02 02:10:10;;;;;;;3.70;1.30;;;;;;;8.11;84.12;99587.91;5063580;28;20213;-79
2024/01/02 02:12:37;;;;;;;8.40;1.67;;;;;;;8.01;85.01;99576.59;5061968;28;20210;-80
2024/01/02 02:15:06;;;;;;;5.10;1.17;;;;;;;7.99;85.47;99568.03;5067789;28;20210;-79
2024/01/02 02:17:44;;;;;;;3.83;1.20;;;;;;;8.01;85.59;99563.38;5066690;28;20237;-79
2024/01/02 02:20:13;;;;;;;4.00;1.17;;;;;;;8.03;86.08;99564.06;5063197;28;20211;-79
2024/01/02 02:22:48;;;;;;;5.93;1.57;;;;;;;7.99;86.47;99558.28;5063110;28;20207;-80
2024/01/02 02:25:17;;;;;;;6.30;1.30;;;;;;;7.95;87.48;99556.94;5062296;28;21864;-79
2024/01/02 02:27:46;;;;;;;4.10;1.33;;;;;;;7.89;88.59;99549.63;5053645;28;20230;-78
2024/01/02 02:30:14;;;;;;;5.50;1.10;;;;;;;7.85;89.44;99533.25;5065617;28;20204;-80
2024/01/02 02:32:43;;;;;;;4.50;0.97;;;;;;;7.87;89.79;99528.66;5034334;28;20209;-78
2024/01/02 02:35:12;;;;;;;5.10;0.90;;;;;;;7.81;90.86;99521.38;5063575;28;20219;-78
2024/01/02 02:37:40;;;;;;;4.13;1.30;;;;;;;7.76;92.00;99520.16;5063351;28;20291;-79
2024/01/02 02:40:11;;;;;;;3.23;0.97;;;;;;;7.79;92.01;99514.56;5069663;28;20695;-79
2024/01/02 02:42:39;;;;;;;4.53;1.00;;;;;;;7.73;92.71;99496.72;5051420;28;20222;-78
2024/01/02 02:45:08;;;;;;;4.83;1.17;;;;;;;7.69;93.66;99498.81;5062352;28;20208;-81
2024/01/02 02:47:37;;;;;;;5.07;1.03;;;;;;;7.71;93.98;99491.59;5068468;28;20202;-79
2024/01/02 02:50:06;;;;;;;4.33;1.30;;;;;;;7.63;94.63;99475.72;5063102;28;20291;-78
2024/01/02 02:52:34;;;;;;;7.83;1.10;;;;;;;7.64;95.28;99479.16;5063959;28;20210;-80
2024/01/02 02:55:03;;;;;;;4.53;1.23;;;;;;;7.67;94.88;99463.84;5039885;28;20315;-81
2024/01/02 02:57:36;;;;;;;6.07;1.03;;;;;;;7.58;95.90;99462.13;5066460;28;20290;-80
2024/01/02 03:00:06;;;;;;;7.37;1.30;;;;;;;7.60;95.94;99446.97;5049713;28;20860;-80
2024/01/02 03:02:34;;;;;;;3.80;1.07;;;;;;;7.65;95.80;99434.13;5062385;28;20602;-80
2024/01/02 03:05:02;;;;;;;4.63;1.00;;;;;;;7.57;95.84;99426.16;5048803;28;20218;-81
2024/01/02 03:07:31;;;;;;;3.17;0.90;;;;;;;7.54;96.66;99424.69;5064657;28;20206;-82
2024/01/02 03:09:58;;;;;;;6.07;1.10;;;;;;;7.52;96.72;99417.91;5065390;28;20913;-80
2024/01/02 03:12:26;;;;;;;2.57;0.93;;;;;;;7.50;97.67;99409.31;5064047;28;20242;-80
2024/01/02 03:14:58;;;;;;;8.37;1.30;;;;;;;7.50;97.56;99404.88;5063282;28;20245;-80
2024/01/02 03:17:26;;;;;;;4.50;1.00;;;;;;;7.52;97.30;99394.16;5045690;28;20226;-79
2024/01/02 03:19:55;;;;;;;3.27;1.07;;;;;;;7.57;96.98;99383.97;5064179;28;20282;-81
2024/01/02 03:22:25;;;;;;;1.90;0.80;;;;;;;7.49;97.67;99376.81;5070123;28;20246;-80
2024/01/02 03:24:53;;;;;;;6.90;0.93;;;;;;;7.51;97.27;99361.69;5065695;28;20242;-80
2024/01/02 03:27:21;;;;;;;2.67;0.93;;;;;;;7.47;97.85;99356.88;5065056;28;20215;-80
2024/01/02 03:29:49;;;;;;;6.43;1.00;;;;;;;7.41;98.75;99342.47;5068304;28;20290;-79
2024/01/02 03:32:18;;;;;;;3.60;0.67;;;;;;;7.46;98.78;99331.50;5064755;28;20204;-81
2024/01/02 03:34:47;;;;;;;4.97;0.90;;;;;;;7.42;98.85;99332.75;5069826;28;20225;-80
2024/01/02 03:37:15;;;;;;;4.07;0.70;;;;;;;7.43;98.93;99323.88;5070373;28;20262;-80
2024/01/02 03:39:43;;;;;;;2.87;0.90;;;;;;;7.51;98.25;99319.47;5066486;28;20310;-80
2024/01/02 03:42:13;;;;;;;2.20;1.40;;;;;;;7.48;98.09;99318.94;5070581;28;20234;-80
2024/01/02 03:44:40;;;;;;;4.30;0.80;;;;;;;7.46;98.84;99311.22;5068816;28;20245;-79
2024/01/02 03:47:08;;;;;;;2.70;0.70;;;;;;;7.46;98.97;99299.84;5068214;28;20738;-81
2024/01/02 03:49:38;;;;;;;3.20;1.00;;;;;;;7.49;98.67;99304.78;5065559;28;20231;-78
2024/01/02 03:52:09;;;;;;;2.57;0.80;;;;;;;7.49;98.21;99302.97;5067475;28;20555;-79
2024/01/02 03:54:39;;;;;;;2.80;0.73;;;;;;;7.57;98.15;99289.00;5065939;28;20218;-81
2024/01/02 03:57:07;;;;;;;2.67;0.70;;;;;;;7.51;98.58;99284.34;5067603;28;20219;-79
2024/01/02 03:59:37;;;;;;;2.50;1.00;;;;;;;7.57;98.81;99270.53;5067829;28;20276;-79
2024/01/02 04:02:05;;;;;;;3.23;0.90;;;;;;;7.60;98.04;99254.41;5070559;28;20711;-80
2024/01/02 04:04:33;;;;;;;4.67;0.73;;;;;;;7.53;98.98;99245.47;5065081;28;20211;-80
2024/01/02 04:07:03;;;;;;;2.13;0.70;;;;;;;7.54;99.13;99242.69;5071991;28;20225;-80
2024/01/02 04:09:31;;;;;;;3.80;0.90;;;;;;;7.48;100.00;99231.91;5067019;28;20211;-80
2024/01/02 04:11:59;;;;;;;1.43;0.60;;;;;;;7.52;99.98;99235.91;5068267;28;20252;-80
2024/01/02 04:14:26;;;;;;;3.47;0.50;;;;;;;7.49;100.00;99218.56;5059373;28;20330;-81
2024/01/02 04:16:56;;;;;;;2.30;0.83;;;;;;;7.42;100.00;99206.19;5072122;28;20671;-80
2024/01/02 04:19:25;;;;;;;2.50;0.73;;;;;;;7.49;100.00;99213.28;5064071;28;20211;-82
2024/01/02 04:21:54;;;;;;;1.63;0.60;;;;;;;7.41;100.00;99215.91;5068313;28;20715;-82
2024/01/02 04:24:24;;;;;;;2.10;0.80;;;;;;;7.42;100.00;99206.19;5052644;28;20254;-82
2024/01/02 04:26:51;;;;;;;3.20;0.60;;;;;;;7.47;100.00;99188.91;5063265;28;20304;-80
2024/01/02 04:29:19;;;;;;;1.87;0.57;;;;;;;7.51;100.00;99182.31;5071605;28;21161;-80
2024/01/02 04:31:48;;;;;;;2.77;0.50;;;;;;;7.50;100.00;99171.91;5063372;28;21008;-79
2024/01/02 04:34:16;;;;;;;2.43;0.60;;;;;;;7.45;100.00;99169.78;5067818;28;20260;-80
2024/01/02 04:36:45;;;;;;;1.50;0.57;;;;;;;7.51;100.00;99174.41;5065835;28;20214;-82
2024/01/02 04:39:13;;;;;;;1.70;0.73;;;;;;;7.51;100.00;99157.75;5063260;28;20264;-81
2024/01/02 04:41:42;;;;;;;3.83;0.87;;;;;;;7.60;100.00;99155.97;5062713;28;20241;-80
2024/01/02 04:44:10;;;;;;;2.57;0.57;;;;;;;7.56;100.00;99160.75;5066074;28;20210;-81
2024/01/02 04:46:38;;;;;;;3.20;0.80;;;;;;;7.63;100.00;99148.56;5065811;28;20292;-81
2024/01/02 04:49:06;;;;;;;1.90;0.73;;;;;;;7.54;100.00;99133.69;5048166;28;20239;-80
2024/01/02 04:51:35;;;;;;;2.60;0.73;;;;;;;7.58;100.00;99135.00;5064589;28;20211;-82
2024/01/02 04:54:02;;;;;;;0.97;0.43;;;;;;;7.60;100.00;99130.41;5043745;28;20207;-81
2024/01/02 04:56:30;;;;;;;2.07;0.70;;;;;;;7.63;100.00;99119.53;5067746;28;20237;-81
2024/01/02 04:59:00;;;;;;;2.40;0.57;;;;;;;7.70;100.00;99125.00;5067473;28;20211;-80
2024/01/02 05:01:28;;;;;;;3.27;0.80;;;;;;;7.70;100.00;99111.78;5052362;28;20280;-83
2024/01/02 05:03:57;;;;;;;5.10;0.90;;;;;;;7.65;100.00;99107.00;5066406;28;20240;-80
2024/01/02 05:06:25;;;;;;;1.00;0.40;;;;;;;7.62;100.00;99090.69;5061010;28;20321;-79
2024/01/02 05:08:53;;;;;;;1.50;0.53;;;;;;;7.67;100.00;99083.09;5069218;28;20206;-79
2024/01/02 05:11:21;;;;;;;2.30;0.60;;;;;;;7.61;100.00;99092.50;5063309;28;20214;-82
2024/01/02 05:13:49;;;;;;;5.23;0.80;;;;;;;7.63;100.00;99098.44;5066985;28;20959;-82
2024/01/02 05:16:19;;;;;;;2.57;0.67;;;;;;;7.57;100.00;99085.88;5068173;28;20271;-80
2024/01/02 05:18:47;;;;;;;0.97;0.50;;;;;;;7.60;100.00;99082.91;5065697;28;20207;-81
2024/01/02 05:21:15;;;;;;;3.07;0.90;;;;;;;7.57;100.00;99083.25;5069329;28;20259;-82
2024/01/02 05:23:43;;;;;;;1.13;0.50;;;;;;;7.62;100.00;99075.69;5046691;28;20266;-79
2024/01/02 05:26:11;;;;;;;2.07;0.60;;;;;;;7.64;100.00;99057.88;5068633;28;20223;-81
2024/01/02 05:28:39;;;;;;;2.37;0.60;;;;;;;7.68;100.00;99059.19;5052174;28;20739;-82
2024/01/02 05:31:07;;;;;;;2.67;0.50;;;;;;;7.68;100.00;99040.72;5071237;28;20242;-86
2024/01/02 05:33:36;;;;;;;2.97;0.60;;;;;;;7.68;100.00;99032.81;5069137;28;20660;-81
2024/01/02 05:36:04;;;;;;;3.10;0.60;;;;;;;7.69;100.00;99017.78;5067018;28;20298;-83
2024/01/02 05:38:33;;;;;;;1.37;0.60;;;;;;;7.61;100.00;99021.25;5066598;28;20661;-80
2024/01/02 05:41:00;;;;;;;5.33;0.77;;;;;;;7.64;100.00;99015.66;5065325;28;20239;-81
2024/01/02 05:43:28;;;;;;;3.40;0.80;;;;;;;7.68;100.00;99021.41;5062039;28;20309;-80
2024/01/02 05:45:56;;;;;;;1.00;0.47;;;;;;;7.66;100.00;99033.94;5063172;28;20204;-79
2024/01/02 05:48:24;;;;;;;4.17;0.60;;;;;;;7.75;100.00;99019.78;5067719;28;20248;-85
2024/01/02 05:50:53;;;;;;;2.73;0.70;;;;;;;7.71;100.00;99000.81;5068396;28;20207;-85
2024/01/02 05:53:21;;;;;;;3.53;0.70;;;;;;;7.73;100.00;99019.13;5064275;28;20259;-87
2024/01/02 05:55:50;;;;;;;4.27;0.60;;;;;;;7.76;100.00;99014.34;5064151;28;20230;-86
2024/01/02 05:58:18;;;;;;;3.07;0.47;;;;;;;7.81;100.00;99011.22;5064766;28;20329;-86
2024/01/02 06:00:46;;;;;;;1.83;0.50;;;;;;;7.80;100.00;99020.94;5068347;28;20221;-87
2024/01/02 06:03:17;;;;;;;1.17;0.30;;;;;;;7.85;100.00;99001.97;5059585;28;20287;-87
2024/01/02 06:05:45;;;;;;;0.87;0.43;;;;;;;7.90;100.00;99008.41;5070520;28;20218;-87
2024/01/02 06:08:18;;;;;;;2.70;0.50;;;;;;;7.96;100.00;98998.16;5069704;28;20230;-88
2024/01/02 06:10:46;;;;;;;1.33;0.60;;;;;;;7.94;100.00;98993.88;5063660;28;20219;-87
2024/01/02 06:13:15;;;;;;;2.13;0.70;;;;;;;7.94;100.00;99009.72;5051322;28;20288;-86
2024/01/02 06:15:45;;;;;;;1.30;0.60;;;;;;;8.07;100.00;98997.81;5068745;28;20293;-89
2024/01/02 06:18:13;;;;;;;0.70;0.37;;;;;;;8.11;100.00;99005.22;5067060;28;20234;-85
2024/01/02 06:20:41;;;;;;;0.60;0.30;;;;;;;8.07;100.00;98992.53;5064292;28;20285;-85
2024/01/02 06:23:10;;;;;;;1.63;0.40;;;;;;;8.11;100.00;99009.69;5066829;28;20246;-84
2024/01/02 06:25:40;;;;;;;1.57;0.50;;;;;;;8.13;100.00;99008.53;5047153;28;20211;-84
2024/01/02 06:28:10;;;;;;;2.47;0.50;;;;;;;8.16;100.00;99012.66;5070216;28;20699;-86
2024/01/02 06:30:38;;;;;;;2.50;0.50;;;;;;;8.13;100.00;99007.69;5027470;28;20240;-85
2024/01/02 06:33:08;;;;;;;1.63;0.70;;;;;;;8.15;100.00;99006.56;5049486;28;20291;-84
2024/01/02 06:35:36;;;;;;;1.97;0.60;;;;;;;8.15;100.00;99011.00;5067882;28;20203;-85
2024/01/02 06:38:04;;;;;;;3.73;0.80;;;;;;;8.19;100.00;99013.13;5065921;28;20291;-85
2024/01/02 06:40:33;;;;;;;1.57;0.80;;;;;;;8.18;100.00;99019.41;5068764;28;20239;-85
2024/01/02 06:43:03;;;;;;;1.83;0.80;;;;;;;8.24;100.00;99002.06;5067788;28;20215;-85
2024/01/02 06:45:32;;;;;;;2.40;0.90;;;;;;;8.27;100.00;99013.09;5064340;28;20866;-85
2024/01/02 06:48:00;;;;;;;1.03;0.40;;;;;;;8.40;100.00;99011.81;5061248;28;20200;-84
2024/01/02 06:50:28;;;;;;;2.90;0.67;;;;;;;8.44;100.00;99006.03;5064779;28;20215;-85
2024/01/02 06:52:57;;;;;;;1.27;0.60;;;;;;;8.40;100.00;99012.63;5059895;28;20211;-84
2024/01/02 06:55:42;;;;;;;1.47;0.47;;;;;;;8.43;100.00;99006.19;5032058;28;20205;-85
2024/01/02 06:58:16;;;;;;;0.93;0.40;;;;;;;8.49;100.00;99000.22;5048701;28;20285;-84
2024/01/02 07:00:44;;;;;;;5.53;2.97;;;;;;;8.45;100.00;99004.19;5062977;28;20200;-90
2024/01/02 07:03:13;;;;;;;1.17;0.57;;;;;;;8.48;100.00;98999.38;5069347;28;20231;-87
2024/01/02 07:05:43;;;;;;;0.73;0.40;;;;;;;8.55;100.00;99025.94;5064687;28;20212;-84
2024/01/02 07:08:13;;;;;;;2.37;0.87;;;;;;;8.57;100.00;99019.50;5064546;28;20207;-84
2024/01/02 07:10:41;;;;;;;1.70;0.70;;;;;;;8.62;100.00;99032.19;5043332;28;20210;-86
2024/01/02 07:13:09;;;;;;;1.60;0.80;;;;;;;8.67;100.00;99030.69;5062681;28;20220;-85
2024/01/02 07:15:40;;;;;;;2.03;0.70;;;;;;;8.73;100.00;99042.41;5061084;28;20239;-86
2024/01/02 07:18:08;;;;;;;2.30;0.63;;;;;;;8.81;100.00;99046.81;5063475;28;20211;-85
2024/01/02 07:20:37;;;;;;;2.30;0.80;;;;;;;8.85;99.64;99043.69;5046956;28;20691;-86
2024/01/02 07:23:06;;;;;;;1.53;0.30;;;;;;;8.87;99.10;99051.44;5059911;28;20235;-86
2024/01/02 07:25:34;;;;;;;1.57;0.40;;;;;;;8.93;98.81;99045.47;5062328;28;20594;-86
2024/01/02 07:32:16;;;;;;;1.60;0.60;;;;;;;8.86;98.90;99058.56;4834430;29;20243;-77
2024/01/02 07:35:33;;;;;;;0.47;0.33;;;;;;;8.90;99.19;99067.78;4935273;28;20296;-77
2024/01/02 07:42:14;;;;;;;0.83;0.40;;;;;;;9.02;98.21;99068.22;4980388;28;20253;-78
2024/01/02 07:53:01;;;;;;;2.33;0.37;;;;;;;9.16;97.13;99077.25;4849013;29;20249;-77
2024/01/02 08:33:11;;;;;;;0.90;0.20;;;;;;;10.09;86.53;99085.91;4796416;29;20282;-66
2024/01/02 08:35:39;;;;;;;0.47;0.20;;;;;;;10.14;85.69;99083.53;4925135;28;20214;-68
2024/01/02 08:38:08;;;;;;;0.40;0.20;;;;;;;10.20;85.20;99103.25;4977040;28;20822;-67
2024/01/02 08:40:36;;;;;;;1.03;0.20;;;;;;;10.18;84.56;99096.28;4979898;28;20230;-65
2024/01/02 08:43:06;;;;;;;0.80;0.27;;;;;;;10.27;84.00;99098.88;4982121;28;20750;-66
2024/01/02 08:45:38;;;;;;;1.90;0.63;;;;;;;10.23;83.60;99093.09;4980815;28;20505;-68
2024/01/02 08:48:07;;;;;;;0.40;0.10;;;;;;;10.22;84.06;99095.91;4976903;28;20571;-66
2024/01/02 08:50:36;;;;;;;0.23;0.20;;;;;;;10.29;83.90;99107.47;4981276;28;20579;-65
2024/01/02 08:53:05;;;;;;;0.10;0.10;;;;;;;10.31;83.61;99102.78;4977945;28;20295;-66
2024/01/02 08:55:33;;;;;;;0.40;0.20;;;;;;;10.35;83.55;99098.78;5013714;28;20211;-67
2024/01/02 08:58:01;;;;;;;0.83;0.20;;;;;;;10.36;82.74;99103.09;5020151;28;20279;-64
2024/01/02 09:00:31;;;;;;;0.20;0.20;;;;;;;10.40;82.89;99105.19;5018712;28;20220;-66
2024/01/02 09:03:00;;;;;;;0.83;0.30;;;;;;;10.40;82.67;99104.38;5019974;28;20292;-69
2024/01/02 09:05:28;;;;;;;0.50;0.20;;;;;;;10.39;82.87;99108.00;5019456;28;20236;-68
2024/01/02 09:07:56;;;;;;;1.90;0.10;;;;;;;10.39;82.59;99118.59;5019076;28;20223;-67
2024/01/02 09:10:24;;;;;;;1.47;0.30;;;;;;;10.40;82.97;99114.97;5019746;28;20668;-66
2024/01/02 09:12:52;;;;;;;0.73;0.20;;;;;;;10.43;83.01;99122.56;5020466;28;20670;-67
2024/01/02 09:15:23;;;;;;;0.50;0.17;;;;;;;10.45;82.59;99113.44;5020476;28;20214;-66
2024/01/02 09:17:55;;;;;;;0.63;0.30;;;;;;;10.48;82.74;99121.00;5018754;28;20255;-69
2024/01/02 09:20:24;;;;;;;0.33;0.13;;;;;;;10.44;83.13;99135.63;5020484;28;20215;-67
2024/01/02 09:22:52;;;;;;;0.43;0.30;;;;;;;10.48;83.11;99128.97;5020281;28;20214;-66
2024/01/02 09:25:26;;;;;;;0.77;0.20;;;;;;;10.43;82.92;99130.50;5021451;28;20236;-67
2024/01/02 09:27:58;;;;;;;0.40;0.20;;;;;;;10.49;82.78;99119.19;5022680;28;20295;-66
2024/01/02 09:30:29;;;;;;;1.20;0.30;;;;;;;10.49;82.82;99120.00;5020221;28;20208;-66
2024/01/02 09:32:59;;;;;;;0.73;0.30;;;;;;;10.49;82.91;99133.25;5020409;28;20200;-64
2024/01/02 09:35:27;;;;;;;1.13;0.87;;;;;;;10.53;82.91;99126.59;5021178;28;20693;-68
2024/01/02 09:37:56;;;;;;;0.53;0.23;;;;;;;10.53;82.68;99129.25;5021276;28;20210;-68
2024/01/02 09:40:44;;;;;;;0.60;0.30;;;;;;;10.55;82.19;99131.72;5018686;28;20204;-64
2024/01/02 09:43:23;;;;;;;0.27;0.20;;;;;;;10.53;82.35;99125.78;5021593;28;20747;-66
2024/01/02 09:46:05;;;;;;;0.70;0.30;;;;;;;10.57;82.25;99127.06;5020275;28;20226;-67
2024/01/02 09:48:49;;;;;;;0.20;0.20;;;;;;;10.55;82.68;99139.69;5021778;28;20290;-66
2024/01/02 09:51:29;;;;;;;1.30;0.50;;;;;;;10.58;82.67;99141.97;5020865;28;20219;-67
2024/01/02 09:54:14;;;;;;;1.17;0.50;;;;;;;10.62;82.21;99131.81;5022649;28;20291;-66
2024/01/02 09:56:57;;;;;;;1.57;0.30;;;;;;;10.64;81.85;99130.66;5019415;28;20221;-67
2024/01/02 09:59:39;;;;;;;1.20;0.30;;;;;;;10.62;81.64;99122.06;5019475;28;20851;-66
2024/01/02 10:02:39;;;;;;;0.67;0.20;;;;;;;10.64;80.84;99121.88;5020504;28;20216;-66
2024/01/02 10:05:27;;;;;;;1.47;0.30;;;;;;;10.62;81.11;99106.16;5016863;28;20291;-66
2024/01/02 10:08:12;;;;;;;0.30;0.20;;;;;;;10.67;81.17;99100.28;5023357;28;20201;-67
2024/01/02 10:11:03;;;;;;;0.93;0.30;;;;;;;10.68;81.16;99104.59;5019835;28;20209;-66
2024/01/02 10:13:41;;;;;;;0.80;0.40;;;;;;;10.71;81.05;99097.09;5020990;28;20200;-67
2024/01/02 10:16:22;;;;;;;2.10;0.30;;;;;;;10.76;80.42;99100.03;5020291;28;20231;-67
2024/01/02 10:19:08;;;;;;;0.77;0.27;;;;;;;10.77;80.54;99106.16;5017737;28;20236;-65
2024/01/02 10:21:46;;;;;;;0.30;0.20;;;;;;;10.79;80.26;99098.84;5017632;28;20205;-67
2024/01/02 10:24:29;;;;;;;0.40;0.30;;;;;;;10.80;80.00;99085.41;5019231;28;20235;-65
2024/01/02 10:27:10;;;;;;;0.20;0.20;;;;;;;10.85;79.60;99083.00;5021950;28;20213;-66
2024/01/02 10:30:13;;;;;;;0.83;0.50;;;;;;;10.80;79.48;99072.16;5004112;28;20207;-66
2024/01/02 10:32:54;;;;;;;0.60;0.20;;;;;;;10.82;79.43;99075.41;5019661;28;20233;-65
2024/01/02 10:35:33;;;;;;;0.40;0.27;;;;;;;10.84;79.23;99065.47;5020668;28;20235;-68
2024/01/02 10:38:09;;;;;;;0.70;0.30;;;;;;;10.85;79.25;99067.09;5019582;28;20204;-68
2024/01/02 10:40:50;;;;;;;0.33;0.20;;;;;;;10.92;78.97;99067.19;5020130;28;20228;-67
2024/01/02 10:43:28;;;;;;;0.40;0.20;;;;;;;10.91;79.17;99071.66;5017994;28;20215;-65
2024/01/02 10:46:04;;;;;;;0.67;0.30;;;;;;;10.90;79.20;99064.75;5019959;28;20223;-67
2024/01/02 10:48:49;;;;;;;0.67;0.20;;;;;;;10.90;78.92;99054.13;5021318;28;20204;-66
2024/01/02 10:51:26;;;;;;;0.30;0.20;;;;;;;10.87;78.75;99054.50;5019062;28;20215;-71
2024/01/02 10:54:05;;;;;;;0.33;0.23;;;;;;;10.92;78.64;99051.28;5018179;28;20239;-66
2024/01/02 10:56:39;;;;;;;0.40;0.30;;;;;;;10.91;78.93;99045.16;5016890;28;20288;-66
2024/01/02 10:59:26;;;;;;;0.37;0.20;;;;;;;10.97;78.74;99030.34;5020020;28;20213;-67
2024/01/02 11:02:06;;;;;;;0.50;0.30;;;;;;;11.00;78.92;99026.47;5019214;28;20201;-67
2024/01/02 11:04:43;;;;;;;0.73;0.20;;;;;;;11.07;78.31;99027.41;5020025;28;20215;-66
2024/01/02 11:07:14;;;;;;;0.33;0.20;;;;;;;11.08;78.12;99031.72;5019876;28;20208;-67
2024/01/02 11:10:20;;;;;;;0.70;0.30;;;;;;;11.08;78.21;99037.81;5013679;28;20223;-68
2024/01/02 11:13:01;;;;;;;0.27;0.20;;;;;;;11.14;78.27;99038.91;5018639;28;20252;-66
2024/01/02 11:15:59;;;;;;;0.60;0.30;;;;;;;11.13;78.07;99034.59;5019676;28;20208;-69
2024/01/02 11:18:37;;;;;;;0.20;0.20;;;;;;;11.10;78.04;99017.22;5019964;28;20744;-65
2024/01/02 11:21:15;;;;;;;0.40;0.20;;;;;;;11.10;77.99;99025.19;5019188;28;20247;-68
2024/01/02 11:23:50;;;;;;;0.77;0.20;;;;;;;11.19;78.03;99021.41;5019499;28;20224;-68
2024/01/02 11:26:24;;;;;;;0.40;0.30;;;;;;;11.19;78.00;99020.59;5017889;28;20234;-67
2024/01/02 11:28:53;;;;;;;0.40;0.20;;;;;;;11.22;77.81;99023.69;5018634;28;20300;-67
2024/01/02 11:31:22;;;;;;;0.30;0.20;;;;;;;11.23;77.85;99008.59;5017133;28;20217;-66
2024/01/02 11:34:12;;;;;;;0.40;0.17;;;;;;;11.26;77.82;99013.50;5018963;28;20231;-69
2024/01/02 11:36:57;;;;;;;0.50;0.30;;;;;;;11.23;77.78;99003.31;5020753;28;20217;-66
2024/01/02 11:39:37;;;;;;;1.33;0.20;;;;;;;11.21;78.31;99000.81;5018818;28;20232;-66
2024/01/02 11:42:19;;;;;;;0.23;0.20;;;;;;;11.20;78.73;98985.09;5018946;28;20299;-66
2024/01/02 11:44:58;;;;;;;1.33;0.40;;;;;;;11.20;79.20;98993.06;5018738;28;20209;-66
2024/01/02 11:47:34;;;;;;;1.07;0.50;;;;;;;11.21;79.71;98989.38;5021157;28;20296;-66
2024/01/02 11:50:08;;;;;;;0.90;0.50;;;;;;;11.21;80.28;98973.47;5022324;28;20286;-67
2024/01/02 11:52:54;;;;;;;1.53;0.40;;;;;;;11.14;81.50;98978.72;5020921;28;20208;-67
2024/01/02 11:55:34;;;;;;;0.53;0.30;;;;;;;10.98;83.41;98976.28;5022240;28;20209;-70
2024/01/02 11:58:12;;;;;;;1.23;0.57;;;;;;;10.91;83.81;98970.91;5024539;28;20232;-65
2024/01/02 12:00:59;;;;;;;0.93;0.43;;;;;;;10.94;84.07;98967.06;5020988;28;20205;-64
2024/01/02 12:03:40;;;;;;;2.57;0.50;;;;;;;10.84;85.02;98959.41;5022032;28;20197;-66
2024/01/02 12:06:17;;;;;;;1.33;0.57;;;;;;;10.82;85.29;98948.16;5021813;28;20232;-67
2024/01/02 12:08:49;;;;;;;1.20;0.60;;;;;;;10.80;86.38;98952.84;5026152;28;20661;-66
2024/01/02 12:11:21;;;;;;;1.43;0.60;;;;;;;10.82;86.16;98949.97;5025312;28;20216;-66
2024/01/02 12:14:05;;;;;;;5.30;0.53;;;;;;;10.86;86.17;98930.88;5025530;28;20233;-67
2024/01/02 12:16:37;;;;;;;1.70;0.83;;;;;;;10.83;86.53;98933.88;5022529;28;20212;-68
2024/01/02 12:19:07;;;;;;;2.90;1.07;;;;;;;10.76;87.64;98926.88;5022400;28;20235;-67
2024/01/02 12:21:39;;;;;;;0.57;0.40;;;;;;;10.74;87.97;98918.28;5020498;28;20571;-67
2024/01/02 12:24:08;;;;;;;2.03;0.90;;;;;;;10.69;88.85;98913.53;5022453;28;20323;-67
2024/01/02 12:26:39;;;;;;;1.73;0.80;;;;;;;10.72;88.62;98899.94;5020324;28;20230;-64
2024/01/02 12:29:11;;;;;;;3.03;1.00;;;;;;;10.64;89.82;98900.03;5020264;28;20208;-66
2024/01/02 12:31:45;;;;;;;3.27;1.10;;;;;;;10.69;89.67;98889.69;5021799;28;20212;-67
2024/01/02 12:34:23;;;;;;;3.30;1.00;;;;;;;10.63;90.24;98895.75;5021144;28;20334;-67
2024/01/02 12:37:00;;;;;;;3.27;0.80;;;;;;;10.62;90.46;98888.78;5020914;28;20208;-66
2024/01/02 12:39:35;;;;;;;3.43;1.63;;;;;;;10.57;91.09;98885.88;5021312;28;20208;-65
2024/01/02 12:42:08;;;;;;;2.13;0.97;;;;;;;10.60;91.41;98872.25;5020387;28;20273;-67
2024/01/02 12:44:43;;;;;;;1.63;0.73;;;;;;;10.59;91.04;98873.25;5022609;28;20267;-67
2024/01/02 12:47:13;;;;;;;1.40;0.60;;;;;;;10.59;91.62;98870.59;5018832;28;20585;-66
2024/01/02 12:49:45;;;;;;;1.83;0.80;;;;;;;10.60;91.34;98871.44;5021240;28;20212;-67
2024/01/02 12:52:22;;;;;;;1.63;0.80;;;;;;;10.56;91.60;98865.66;5018291;28;20205;-65